Time;durP1;ratioP1;P1;durP2;ratioP2;P2;SDS_P1;SDS_P2;PMS_P1;PMS_P2;Temp;Humidity;BMP_temperature;BMP_pressure;BME280_temperature;BME280_humidity;BME280_pressure;Samples;Min_cycle;Max_cycle;Signal;HPM_P1;HPM_P2
2021/03/05 00:01:36;;;;;;;;;;;;;;;4.51;61.10;93149.47;5079644;28;20044;-92
2021/03/05 00:04:03;;;;;;;7.35;2.92;;;;;;;4.49;61.01;93146.28;5072926;28;19955;-92
2021/03/05 00:06:29;;;;;;;8.18;2.65;;;;;;;4.07;61.23;93086.63;5073166;28;20055;-91
2021/03/05 00:08:55;;;;;;;;;;;;;;;4.44;61.45;93140.94;5073690;28;20044;-92
2021/03/05 00:11:21;;;;;;;11.02;4.10;;;;;;;3.82;61.77;93053.78;5072282;28;19924;-92
2021/03/05 00:13:48;;;;;;;;;;;;;;;4.37;61.60;93145.94;5074014;28;20407;-91
2021/03/05 00:16:15;;;;;;;5.55;3.00;;;;;;;4.32;62.07;93143.13;5072918;28;20389;-92
2021/03/05 00:18:41;;;;;;;;;;;;;;;4.32;62.24;93139.78;5073080;28;20086;-91
2021/03/05 00:21:07;;;;;;;6.53;2.67;;;;;;;4.01;62.55;93103.34;5073280;28;19924;-92
2021/03/05 00:23:33;;;;;;;10.55;2.67;;;;;;;3.85;62.32;93082.16;5072646;28;20048;-90
2021/03/05 00:25:59;;;;;;;;;;;;;;;4.22;62.92;93133.19;5073341;28;20490;-91
2021/03/05 00:28:26;;;;;;;3.58;2.33;;;;;;;3.72;63.18;93076.88;5072556;28;19928;-92
2021/03/05 00:30:53;;;;;;;;;;;;;;;4.10;63.45;93132.81;5062887;28;20041;-91
2021/03/05 00:33:19;;;;;;;3.85;2.33;;;;;;;3.45;63.09;93039.16;5062541;28;20362;-91
2021/03/05 00:35:45;;;;;;;;;;;;;;;4.09;62.94;93126.16;5058529;28;20091;-91
2021/03/05 00:38:11;;;;;;;4.05;1.95;;;;;;;3.66;64.09;93073.25;5061470;28;19920;-92
2021/03/05 00:40:37;;;;;;;;;;;;;;;4.02;64.12;93132.88;5062503;28;20048;-92
2021/03/05 00:43:07;;;;;;;6.55;2.60;;;;;;;3.40;64.14;93048.22;5062303;28;19943;-92
2021/03/05 00:45:33;;;;;;;7.07;3.55;;;;;;;3.74;63.76;93105.44;5062681;28;20044;-92
2021/03/05 00:48:00;;;;;;;4.78;2.35;;;;;;;3.39;63.70;93046.66;5068006;28;20182;-94
2021/03/05 00:50:27;;;;;;;5.78;2.58;;;;;;;3.76;64.41;93092.56;5092631;28;20044;-93
2021/03/05 00:52:53;;;;;;;4.78;2.60;;;;;;;3.15;64.62;93003.47;5077876;28;20072;-96
2021/03/05 00:55:43;;;;;;;4.85;2.63;;;;;;;2.98;64.46;92977.44;5082135;28;20056;-96
2021/03/05 00:58:09;;;;;;;6.60;1.95;;;;;;;3.17;64.70;93010.94;5077369;28;20479;-92
2021/03/05 01:00:36;;;;;;;7.15;2.92;;;;;;;3.41;64.57;93057.41;5074802;28;20053;-92
2021/03/05 01:03:03;;;;;;;6.47;2.72;;;;;;;3.49;65.43;93077.69;5072732;28;20048;-92
2021/03/05 01:05:30;;;;;;;15.13;3.53;;;;;;;3.67;65.83;93104.56;5075164;28;20124;-94
2021/03/05 01:07:56;;;;;;;6.28;2.67;;;;;;;3.50;65.80;93078.47;5079213;28;20079;-96
2021/03/05 01:10:23;;;;;;;5.07;2.58;;;;;;;3.27;66.34;93053.84;5079679;28;20045;-95
2021/03/05 01:12:49;;;;;;;10.18;3.67;;;;;;;3.46;66.73;93088.16;5079438;28;20048;-96
2021/03/05 01:15:16;;;;;;;;;;;;;;;3.59;66.38;93113.81;5080343;28;20060;-96
2021/03/05 01:17:42;;;;;;;9.38;3.17;;;;;;;3.31;67.02;93085.56;5079829;28;19920;-96
2021/03/05 01:20:15;;;;;;;10.02;3.78;;;;;;;3.26;66.60;93086.09;5079926;28;20052;-95
2021/03/05 01:22:41;;;;;;;5.80;3.40;;;;;;;3.13;66.78;93057.91;5078910;28;20123;-96
2021/03/05 01:25:09;;;;;;;7.50;3.33;;;;;;;3.10;66.66;93068.41;5082379;28;20045;-96
2021/03/05 01:27:35;;;;;;;5.18;3.50;;;;;;;3.18;66.76;93081.84;5088759;28;20051;-96
2021/03/05 01:30:03;;;;;;;;;;;;;;;3.27;66.70;93109.69;5103365;28;20051;-95
2021/03/05 01:32:29;;;;;;;5.43;2.25;;;;;;;3.21;67.62;93106.09;5104126;28;19965;-96
2021/03/05 01:34:55;;;;;;;5.78;2.50;;;;;;;2.96;68.27;93075.75;5102539;28;20059;-94
2021/03/05 01:37:23;;;;;;;;;;;;;;;3.13;67.54;93109.47;5102246;28;20047;-96
2021/03/05 01:39:49;;;;;;;6.40;2.28;;;;;;;2.85;68.15;93079.47;5102635;28;20370;-96
2021/03/05 01:42:16;;;;;;;5.75;2.25;;;;;;;2.62;67.88;93049.75;5102098;28;20058;-95
2021/03/05 01:44:43;;;;;;;5.82;3.35;;;;;;;2.84;68.58;93088.03;5102867;28;20063;-96
2021/03/05 01:47:10;;;;;;;5.55;3.35;;;;;;;2.82;67.92;93069.63;5103068;28;20052;-95
2021/03/05 01:49:36;;;;;;;7.82;2.90;;;;;;;2.87;68.38;93069.16;5103727;28;20060;-95
2021/03/05 01:52:02;;;;;;;8.13;3.35;;;;;;;2.42;68.30;93013.84;5104721;28;20500;-96
2021/03/05 01:54:30;;;;;;;6.85;3.65;;;;;;;2.49;69.74;93031.72;5104025;28;20044;-96
2021/03/05 01:56:59;;;;;;;7.50;3.85;;;;;;;1.99;69.20;92950.81;5106977;28;20073;-95
2021/03/05 01:59:30;;;;;;;8.52;4.32;;;;;;;2.50;71.82;93068.81;5109285;28;20514;-96
2021/03/05 02:05:20;;;;;;;6.93;3.30;;;;;;;2.51;71.67;93088.16;5087548;28;20048;-96
2021/03/05 02:07:49;;;;;;;4.85;3.35;;;;;;;2.46;71.06;93065.78;5084895;28;20052;-96
2021/03/05 02:10:17;;;;;;;10.30;4.30;;;;;;;2.39;70.63;93054.72;5084787;28;20054;-96
2021/03/05 02:12:44;;;;;;;22.92;3.15;;;;;;;2.35;71.38;93063.59;5085552;28;20106;-96
2021/03/05 02:15:12;;;;;;;5.57;3.05;;;;;;;1.86;70.83;92956.38;5085072;28;20048;-96
2021/03/05 02:17:47;;;;;;;10.07;4.50;;;;;;;2.20;71.72;93048.28;5084608;28;20125;-96
2021/03/05 02:20:22;;;;;;;18.70;7.20;;;;;;;2.50;70.07;93078.97;5083197;28;20051;-96
2021/03/05 02:23:38;;;;;;;18.33;8.17;;;;;;;2.02;68.92;93013.00;5083400;28;20044;-96
2021/03/05 02:27:06;;;;;;;22.33;10.32;;;;;;;1.94;69.44;93014.63;5084373;28;20052;-96
2021/03/05 02:30:15;;;;;;;34.15;9.73;;;;;;;1.80;71.30;93045.69;5084028;28;20517;-95
2021/03/05 02:32:51;;;;;;;30.50;10.57;;;;;;;1.11;71.36;92958.22;5083454;28;20052;-96
2021/03/05 02:35:18;;;;;;;33.38;12.65;;;;;;;0.74;71.46;92945.06;5082666;28;20075;-96
2021/03/05 02:37:50;;;;;;;25.83;11.73;;;;;;;0.80;72.58;92967.97;5085864;28;20052;-96
2021/03/05 02:40:22;;;;;;;28.75;13.10;;;;;;;0.74;70.67;92968.59;5083869;28;20055;-96
2021/03/05 02:42:53;;;;;;;22.20;9.63;;;;;;;1.24;71.57;93076.66;5083213;28;20044;-96
2021/03/05 02:45:23;;;;;;;17.10;9.75;;;;;;;1.27;71.55;93078.88;5082100;28;20056;-96
2021/03/05 02:47:55;;;;;;;18.92;9.52;;;;;;;1.29;71.29;93075.22;5082169;28;20056;-96
2021/03/05 02:50:25;;;;;;;22.60;10.65;;;;;;;0.84;72.77;93064.56;5082429;28;20048;-96
2021/03/05 02:52:54;;;;;;;35.80;12.98;;;;;;;1.43;71.84;93113.56;5081984;28;20055;-96
2021/03/05 02:55:22;;;;;;;32.53;14.88;;;;;;;1.33;72.51;93111.13;5082215;28;20053;-96
2021/03/05 02:57:54;;;;;;;28.83;11.77;;;;;;;0.13;73.40;92959.41;5082221;28;20052;-96
2021/03/05 03:00:22;;;;;;;24.35;11.80;;;;;;;0.51;75.32;93049.28;5081278;28;20052;-96
2021/03/05 03:02:52;;;;;;;24.00;10.82;;;;;;;0.48;75.14;93052.09;5082106;28;20513;-96
2021/03/05 03:05:19;;;;;;;35.28;11.02;;;;;;;0.64;74.44;93064.00;5082125;28;20056;-96
2021/03/05 03:07:47;;;;;;;33.08;12.77;;;;;;;0.84;74.63;93089.84;5081372;28;20044;-94
2021/03/05 03:10:14;;;;;;;30.67;12.77;;;;;;;0.49;74.37;93034.25;5081674;28;20055;-95
2021/03/05 03:12:42;;;;;;;25.77;12.55;;;;;;;0.83;74.87;93082.41;5081851;28;20051;-96
2021/03/05 03:15:10;;;;;;;21.80;10.55;;;;;;;0.48;74.04;93022.56;5082328;28;20059;-96
2021/03/05 03:17:38;;;;;;;26.50;10.50;;;;;;;0.68;74.66;93055.16;5080900;28;20053;-95
2021/03/05 03:20:08;;;;;;;21.60;10.80;;;;;;;0.69;74.51;93051.69;5080770;28;20481;-95
2021/03/05 03:22:34;;;;;;;29.40;12.23;;;;;;;0.83;73.53;93070.53;5080982;28;20049;-95
2021/03/05 03:25:02;;;;;;;17.05;9.55;;;;;;;0.83;74.09;93067.22;5082377;28;20056;-94
2021/03/05 03:27:28;;;;;;;21.35;9.77;;;;;;;1.18;74.03;93121.88;5081474;28;20056;-95
2021/03/05 03:29:55;;;;;;;23.65;10.32;;;;;;;1.09;75.19;93115.19;5082677;28;20056;-96
2021/03/05 03:32:22;;;;;;;25.13;10.98;;;;;;;1.01;73.75;93090.66;5081713;28;20503;-95
2021/03/05 03:34:49;;;;;;;29.80;9.80;;;;;;;0.78;73.92;93065.94;5081974;28;20052;-96
2021/03/05 03:37:18;;;;;;;22.40;11.73;;;;;;;0.39;74.54;93010.84;5081322;28;20048;-96
2021/03/05 03:39:47;;;;;;;26.20;10.80;;;;;;;0.74;75.35;93087.41;5082499;28;20089;-96
2021/03/05 03:42:14;;;;;;;26.83;9.10;;;;;;;-0.15;76.69;92989.91;5081986;28;20067;-96
2021/03/05 03:44:40;;;;;;;21.27;11.32;;;;;;;0.65;76.94;93088.34;5081876;28;20052;-96
2021/03/05 03:47:07;;;;;;;22.45;8.18;;;;;;;0.29;76.59;93040.47;5080045;28;20056;-96
2021/03/05 03:49:40;;;;;;;18.20;8.65;;;;;;;-0.12;77.05;92983.78;5082975;28;20044;-96
2021/03/05 03:52:13;;;;;;;26.83;11.15;;;;;;;-0.20;76.79;92968.56;5090038;28;20044;-96
2021/03/05 03:54:45;;;;;;;29.75;10.95;;;;;;;-0.30;76.94;92956.06;5084654;28;20074;-96
2021/03/05 03:57:15;;;;;;;17.73;7.75;;;;;;;0.60;76.65;93093.06;5084710;28;20053;-96
2021/03/05 03:59:43;;;;;;;25.25;10.48;;;;;;;0.08;76.71;93007.06;5082077;28;20058;-96
2021/03/05 04:02:10;;;;;;;21.05;10.73;;;;;;;0.11;77.25;93029.50;5083919;28;20054;-96
2021/03/05 04:04:41;;;;;;;22.13;10.63;;;;;;;-0.42;78.12;92980.75;5087293;28;20131;-96
2021/03/05 04:07:09;;;;;;;26.67;10.52;;;;;;;-0.23;77.74;92994.91;5088461;28;20077;-96
2021/03/05 04:09:38;;;;;;;27.58;12.20;;;;;;;0.38;78.67;93101.00;5090978;28;20059;-96
2021/03/05 04:12:10;;;;;;;29.88;12.30;;;;;;;-0.41;79.82;93000.78;5092246;28;20048;-96
2021/03/05 04:14:37;;;;;;;18.42;10.07;;;;;;;-0.54;80.79;92988.56;5089207;28;20044;-96
2021/03/05 04:17:04;;;;;;;26.70;10.57;;;;;;;0.17;80.61;93100.56;5087981;28;20072;-96
2021/03/05 04:19:31;;;;;;;23.50;10.00;;;;;;;-0.71;80.67;92977.56;5088206;28;20048;-96
2021/03/05 04:21:58;;;;;;;23.90;9.30;;;;;;;-0.41;83.47;93070.69;5085768;28;20100;-96
2021/03/05 04:27:13;;;;;;;13.68;8.50;;;;;;;-0.24;83.63;93101.88;5091957;28;20094;-96
2021/03/05 04:29:43;;;;;;;20.55;8.85;;;;;;;-1.05;84.03;92990.03;5093763;28;20051;-96
2021/03/05 04:34:54;;;;;;;29.65;10.30;;;;;;;-0.68;84.50;93047.13;5090664;28;20070;-96
2021/03/05 04:40:30;;;;;;;23.60;10.63;;;;;;;-0.89;83.05;92991.94;5092310;28;20128;-96
2021/03/05 04:46:27;;;;;;;24.33;12.50;;;;;;;-0.83;82.25;92997.16;5072609;28;20051;-96
2021/03/05 04:48:53;;;;;;;28.17;10.60;;;;;;;-0.01;81.86;93106.44;5084718;28;20055;-96
2021/03/05 04:51:21;;;;;;;29.95;9.65;;;;;;;-0.09;80.96;93088.72;5086211;28;20048;-96
2021/03/05 04:53:48;;;;;;;24.02;10.27;;;;;;;-0.36;81.59;93042.47;5086747;28;20049;-96
2021/03/05 04:56:17;;;;;;;21.88;10.50;;;;;;;-0.30;81.63;93062.06;5086332;28;20076;-96
2021/03/05 04:58:45;;;;;;;24.65;12.73;;;;;;;-0.80;80.91;92993.56;5088937;28;20071;-96
2021/03/05 05:01:18;;;;;;;31.67;12.45;;;;;;;-0.68;80.83;93005.00;5095494;28;20083;-96
2021/03/05 05:04:01;;;;;;;22.50;9.15;;;;;;;-0.74;79.39;92990.47;5077240;28;20483;-96
2021/03/05 05:06:29;;;;;;;23.05;9.93;;;;;;;-0.65;79.35;93005.69;5090615;28;20057;-96
2021/03/05 05:09:00;;;;;;;22.83;9.73;;;;;;;-0.06;79.65;93086.69;5092627;28;20056;-96
2021/03/05 05:14:07;;;;;;;16.40;9.73;;;;;;;0.36;79.17;93152.63;5068189;22;20057;-83
2021/03/05 05:16:33;;;;;;;;;;;;;;;-0.17;81.34;93158.44;5052868;28;20052;-81
2021/03/05 05:19:00;;;;;;;19.17;9.43;;;;;;;-0.21;82.37;93144.50;5051913;28;19925;-82
2021/03/05 05:21:27;;;;;;;22.35;9.80;;;;;;;-0.12;81.58;93130.22;5052363;28;20044;-83
2021/03/05 05:23:53;;;;;;;;;;;;;;;0.10;81.15;93155.94;5052353;28;20052;-83
2021/03/05 05:26:19;;;;;;;18.35;9.23;;;;;;;0.06;81.38;93157.97;5052091;28;19929;-83
2021/03/05 05:28:45;;;;;;;;;;;;;;;0.05;81.16;93160.63;5052454;28;20045;-80
2021/03/05 05:31:11;;;;;;;22.30;10.02;;;;;;;-0.01;81.69;93165.34;5051798;28;19921;-82
2021/03/05 05:33:37;;;;;;;;;;;;;;;-0.13;82.17;93169.03;5052490;28;20462;-83
2021/03/05 05:36:05;;;;;;;13.32;9.70;;;;;;;-0.38;82.00;93141.03;5052018;28;19921;-86
2021/03/05 05:38:31;;;;;;;28.83;11.82;;;;;;;-0.19;81.71;93157.00;5045014;28;20052;-86
2021/03/05 05:40:59;;;;;;;;;;;;;;;-0.04;81.40;93172.41;5071952;28;20056;-86
2021/03/05 05:43:30;;;;;;;29.65;11.75;;;;;;;-0.05;81.80;93165.78;5069400;28;19966;-87
2021/03/05 05:45:59;;;;;;;26.52;11.70;;;;;;;-0.02;80.83;93161.22;5071313;28;20052;-90
2021/03/05 05:48:26;;;;;;;18.27;12.82;;;;;;;-0.03;81.01;93138.63;5071675;28;20454;-87
2021/03/05 05:50:53;;;;;;;36.65;13.38;;;;;;;0.33;80.76;93181.50;5071532;28;20044;-87
2021/03/05 05:53:22;;;;;;;22.92;13.10;;;;;;;0.47;80.26;93174.34;5071573;28;20048;-86
2021/03/05 05:55:48;;;;;;;33.65;12.25;;;;;;;0.52;79.70;93152.72;5071560;28;20066;-85
2021/03/05 05:58:15;;;;;;;;;;;;;;;0.90;78.85;93182.81;5072460;28;20422;-84
2021/03/05 06:00:42;;;;;;;28.17;13.63;;;;;;;0.95;77.32;93157.03;5071477;28;19970;-83
2021/03/05 06:03:09;;;;;;;29.92;11.35;;;;;;;1.37;76.07;93185.81;5071410;28;20075;-80
2021/03/05 06:05:35;;;;;;;19.33;8.05;;;;;;;1.58;74.19;93184.63;5071443;28;20542;-79
2021/03/05 06:08:01;;;;;;;;;;;;;;;1.85;73.37;93186.06;5071671;28;20491;-79
2021/03/05 06:10:29;;;;;;;18.48;7.60;;;;;;;2.03;73.28;93184.34;5070502;28;19921;-79
2021/03/05 06:12:55;;;;;;;16.75;10.40;;;;;;;2.25;72.64;93190.53;5071143;28;20077;-79
2021/03/05 06:15:21;;;;;;;10.10;5.65;;;;;;;2.49;71.62;93183.84;5071002;28;20040;-79
2021/03/05 06:17:49;;;;;;;14.55;8.13;;;;;;;2.74;69.95;93192.19;5071308;28;20056;-79
2021/03/05 06:20:17;;;;;;;11.10;5.82;;;;;;;2.99;69.87;93184.53;5071014;28;20105;-80
2021/03/05 06:22:46;;;;;;;12.52;6.45;;;;;;;3.10;69.85;93162.31;5070712;28;20098;-81
2021/03/05 06:25:13;;;;;;;14.95;7.80;;;;;;;3.51;68.66;93179.88;5071031;28;20048;-84
2021/03/05 06:27:40;;;;;;;15.10;8.38;;;;;;;3.77;67.23;93186.41;5070643;28;20055;-85
2021/03/05 06:30:08;;;;;;;14.88;8.25;;;;;;;3.94;66.88;93165.97;5070842;28;20057;-84
2021/03/05 06:32:36;;;;;;;15.90;7.30;;;;;;;4.13;64.41;93170.59;5070246;28;20128;-85
2021/03/05 06:35:04;;;;;;;17.30;10.30;;;;;;;4.31;64.45;93184.78;5070898;28;20389;-85
2021/03/05 06:37:42;;;;;;;21.63;7.93;;;;;;;4.51;62.53;93182.53;5070829;28;20052;-85
2021/03/05 06:40:09;;;;;;;15.15;8.13;;;;;;;4.54;62.45;93178.88;5071213;28;20059;-86
2021/03/05 06:42:49;;;;;;;17.45;7.72;;;;;;;4.79;61.66;93184.50;5071127;28;20391;-85
2021/03/05 06:45:16;;;;;;;20.75;8.52;;;;;;;5.03;60.55;93182.66;5030204;28;20049;-86
2021/03/05 06:47:59;;;;;;;17.35;8.15;;;;;;;5.09;59.65;93163.34;5030743;28;20045;-85
2021/03/05 06:50:25;;;;;;;17.48;7.45;;;;;;;5.15;59.25;93151.66;5030465;28;20049;-85
2021/03/05 06:52:51;;;;;;;;;;;;;;;5.49;58.16;93180.88;5030938;28;20045;-84
2021/03/05 06:55:18;;;;;;;15.55;7.10;;;;;;;5.50;58.40;93174.78;5030068;28;19921;-84
2021/03/05 06:57:45;;;;;;;14.27;7.50;;;;;;;5.70;58.69;93184.44;5030000;28;20088;-84
2021/03/05 07:00:17;;;;;;;19.45;8.32;;;;;;;5.99;58.60;93185.28;5030298;28;20087;-84
2021/03/05 07:02:44;;;;;;;18.38;8.32;;;;;;;6.31;56.31;93178.16;5029968;28;20451;-83
2021/03/05 07:05:12;;;;;;;16.10;8.38;;;;;;;6.53;55.25;93167.94;5029532;28;20415;-84
2021/03/05 07:07:45;;;;;;;22.08;10.55;;;;;;;6.52;55.67;93158.66;5029817;28;20049;-83
2021/03/05 07:10:13;;;;;;;17.63;8.85;;;;;;;6.36;56.17;93158.00;5029905;28;20049;-84
2021/03/05 07:12:59;;;;;;;18.33;7.93;;;;;;;6.55;56.15;93171.88;5029178;28;20053;-83
2021/03/05 07:15:26;;;;;;;16.58;7.28;;;;;;;6.72;55.28;93171.59;5029486;28;20200;-83
2021/03/05 07:17:53;;;;;;;20.70;9.82;;;;;;;6.53;54.95;93163.59;5029742;28;20053;-84
2021/03/05 07:20:19;;;;;;;16.95;8.20;;;;;;;6.90;54.39;93178.75;5029555;28;20545;-84
2021/03/05 07:22:48;;;;;;;30.33;10.63;;;;;;;6.99;55.00;93171.72;5030039;28;20099;-83
2021/03/05 07:25:17;;;;;;;25.33;11.27;;;;;;;6.94;54.35;93148.53;5030068;28;20136;-83
2021/03/05 07:27:44;;;;;;;18.98;10.38;;;;;;;7.17;53.77;93163.56;5029500;28;20121;-84
2021/03/05 07:30:12;;;;;;;39.65;13.20;;;;;;;7.56;53.91;93156.28;5030049;28;20132;-83
2021/03/05 07:32:46;;;;;;;16.50;8.57;;;;;;;7.91;53.04;93147.69;5029538;28;20515;-84
2021/03/05 07:35:18;;;;;;;16.50;7.80;;;;;;;8.19;52.23;93145.97;5029645;28;20056;-83
2021/03/05 07:37:47;;;;;;;25.83;11.38;;;;;;;8.64;50.38;93142.81;5029913;28;20099;-83
2021/03/05 07:40:15;;;;;;;24.35;9.60;;;;;;;9.16;50.40;93149.81;5029578;28;20045;-83
2021/03/05 07:42:42;;;;;;;21.30;9.80;;;;;;;9.31;48.55;93145.19;5029686;28;20408;-83
2021/03/05 07:45:10;;;;;;;23.00;10.15;;;;;;;9.46;48.16;93141.59;5029847;28;20049;-83
2021/03/05 07:47:38;;;;;;;24.48;10.23;;;;;;;9.43;47.52;93135.09;5029723;28;20057;-83
2021/03/05 07:50:08;;;;;;;21.80;10.45;;;;;;;9.85;48.38;93131.34;5029772;28;20052;-83
2021/03/05 07:52:36;;;;;;;23.73;9.55;;;;;;;10.19;47.72;93136.25;5029549;28;20045;-83
2021/03/05 07:55:02;;;;;;;26.80;11.27;;;;;;;10.58;45.95;93128.47;5029757;28;20056;-84
2021/03/05 07:57:48;;;;;;;17.98;9.27;;;;;;;10.18;45.05;93107.22;5029653;28;20052;-84
2021/03/05 08:00:17;;;;;;;;;;;;;;;10.71;44.46;93136.06;5029992;28;20087;-84
2021/03/05 08:02:55;;;;;;;16.88;10.10;;;;;;;10.78;43.88;93133.44;5029806;28;20016;-84
2021/03/05 08:05:33;;;;;;;28.83;9.77;;;;;;;10.82;45.24;93119.94;5029416;28;20080;-83
2021/03/05 08:08:19;;;;;;;26.33;10.90;;;;;;;10.75;43.65;93128.72;5029381;28;20091;-83
2021/03/05 08:10:48;;;;;;;21.80;9.35;;;;;;;10.89;43.79;93134.50;5029459;28;20053;-84
2021/03/05 08:13:50;;;;;;;16.98;9.10;;;;;;;10.99;43.21;93121.97;5029165;28;20061;-84
2021/03/05 08:16:38;;;;;;;20.95;8.43;;;;;;;10.88;44.06;93104.69;5029120;28;20053;-83
2021/03/05 08:19:47;;;;;;;17.77;8.40;;;;;;;11.36;41.44;93114.22;5029276;28;20053;-82
2021/03/05 08:22:16;;;;;;;17.85;8.35;;;;;;;11.79;42.43;93106.56;5029023;28;20463;-84
2021/03/05 08:24:42;;;;;;;19.00;7.57;;;;;;;12.30;38.65;93095.94;5029589;28;20049;-84
2021/03/05 08:27:11;;;;;;;18.55;7.25;;;;;;;12.62;38.54;93100.75;5029369;28;20072;-84
2021/03/05 08:29:56;;;;;;;54.72;16.65;;;;;;;13.03;36.26;93077.63;5029108;28;20053;-86
2021/03/05 08:32:44;;;;;;;20.08;8.18;;;;;;;13.77;34.35;93093.44;5014603;28;20053;-86
2021/03/05 08:35:12;;;;;;;150.10;39.78;;;;;;;14.26;33.10;93090.34;5033049;28;20053;-86
2021/03/05 08:37:41;;;;;;;35.10;12.25;;;;;;;14.52;29.61;93087.34;5033378;28;20103;-83
2021/03/05 08:40:31;;;;;;;23.65;7.70;;;;;;;14.93;28.58;93095.72;5033314;28;20484;-84
2021/03/05 08:42:57;;;;;;;10.25;4.00;;;;;;;14.64;26.01;93071.75;5032672;28;20500;-83
2021/03/05 08:45:26;;;;;;;16.63;6.35;;;;;;;14.98;27.92;93082.06;5032924;28;20125;-83
2021/03/05 08:47:55;;;;;;;18.80;6.30;;;;;;;15.39;27.96;93089.50;5033294;28;20052;-83
2021/03/05 08:50:23;;;;;;;41.88;12.68;;;;;;;15.63;25.75;93078.88;5033277;28;20045;-83
2021/03/05 08:52:51;;;;;;;8.38;4.20;;;;;;;15.88;23.88;93086.09;5032767;28;20452;-83
2021/03/05 08:55:19;;;;;;;10.30;4.47;;;;;;;15.97;25.65;93086.47;5032546;28;20057;-82
2021/03/05 08:57:49;;;;;;;8.25;3.78;;;;;;;15.82;25.60;93081.13;5032661;28;20504;-83
2021/03/05 09:00:20;;;;;;;16.83;4.72;;;;;;;16.14;23.60;93078.59;5032700;28;20134;-83
2021/03/05 09:02:51;;;;;;;96.43;24.88;;;;;;;16.23;22.29;93065.16;5032588;28;20338;-83
2021/03/05 09:05:25;;;;;;;86.55;23.73;;;;;;;16.39;21.92;93072.03;5032544;28;20096;-83
2021/03/05 09:07:54;;;;;;;30.83;9.30;;;;;;;16.34;21.99;93069.38;5032768;28;20140;-83
2021/03/05 09:10:37;;;;;;;24.35;9.60;;;;;;;16.53;21.91;93063.81;5032282;28;20054;-82
2021/03/05 09:13:04;;;;;;;72.38;19.98;;;;;;;16.43;22.41;93065.31;5032378;28;20054;-82
2021/03/05 09:15:40;;;;;;;36.22;11.75;;;;;;;16.13;22.70;93055.50;5024257;28;20054;-82
2021/03/05 09:18:06;;;;;;;14.63;6.07;;;;;;;16.14;22.32;93059.66;5032820;28;20045;-83
2021/03/05 09:20:43;;;;;;;5.68;2.28;;;;;;;16.33;20.00;93054.88;5035566;28;20049;-83
2021/03/05 09:23:29;;;;;;;10.27;1.85;;;;;;;15.90;20.84;93052.19;5052117;28;20630;-84
2021/03/05 09:25:56;;;;;;;3.85;1.65;;;;;;;15.81;21.74;93046.69;5038675;28;20046;-84
2021/03/05 09:28:24;;;;;;;5.25;2.65;;;;;;;16.20;22.46;93056.06;5032644;28;20049;-84
2021/03/05 09:30:52;;;;;;;19.38;5.38;;;;;;;16.56;22.12;93037.38;5032631;28;20060;-84
2021/03/05 09:33:26;;;;;;;7.68;2.53;;;;;;;16.69;21.47;93033.56;5040284;28;20052;-84
2021/03/05 09:36:01;;;;;;;12.93;4.32;;;;;;;16.83;22.01;93044.25;5042883;28;20139;-84
2021/03/05 09:38:29;;;;;;;7.00;2.93;;;;;;;16.99;20.94;93031.38;5050875;28;20049;-84
2021/03/05 09:41:08;;;;;;;17.35;6.35;;;;;;;16.95;21.29;93021.47;5045870;28;20356;-84
2021/03/05 09:43:34;;;;;;;21.45;7.72;;;;;;;17.23;19.66;93032.50;5031490;28;20049;-84
2021/03/05 09:46:00;;;;;;;15.95;6.35;;;;;;;17.27;20.80;93032.00;5031039;28;20579;-84
2021/03/05 09:48:27;;;;;;;;;;;;;;;17.22;19.14;93038.75;5046860;28;20514;-83
2021/03/05 09:50:57;;;;;;;13.82;3.15;;;;;;;17.34;20.60;93035.94;5070054;28;19924;-83
2021/03/05 09:53:26;;;;;;;2.17;1.02;;;;;;;17.18;19.22;93027.28;5057127;28;20056;-83
2021/03/05 09:55:55;;;;;;;3.08;1.52;;;;;;;17.13;21.12;93019.50;5031798;28;20045;-83
2021/03/05 09:58:22;;;;;;;19.35;7.50;;;;;;;17.19;20.36;93021.09;5031534;28;20060;-83
2021/03/05 10:00:49;;;;;;;3.38;1.70;;;;;;;17.09;20.58;93003.66;5031578;28;20052;-83
2021/03/05 10:03:16;;;;;;;7.20;2.95;;;;;;;17.22;19.68;93017.97;5031456;28;20076;-83
2021/03/05 10:05:44;;;;;;;5.93;2.55;;;;;;;17.34;19.71;93019.56;5031511;28;20045;-83
2021/03/05 10:08:16;;;;;;;8.80;3.50;;;;;;;17.54;19.46;93010.25;5031822;28;20050;-83
2021/03/05 10:11:01;;;;;;;5.97;2.78;;;;;;;17.45;18.59;93021.13;5031263;28;20099;-83
2021/03/05 10:13:42;;;;;;;3.13;1.98;;;;;;;17.57;19.19;93018.31;5031384;28;20061;-83
2021/03/05 10:16:12;;;;;;;3.47;1.70;;;;;;;17.55;20.23;93012.56;5031721;28;20404;-84
2021/03/05 10:18:39;;;;;;;3.42;1.58;;;;;;;17.57;18.72;93000.13;5055240;28;20423;-84
2021/03/05 10:21:08;;;;;;;4.25;1.90;;;;;;;17.71;18.69;92995.22;5071229;28;20056;-83
2021/03/05 10:23:35;;;;;;;3.47;2.03;;;;;;;17.79;19.00;92986.13;5070993;28;20060;-83
2021/03/05 10:26:02;;;;;;;5.45;2.08;;;;;;;17.93;18.46;93004.56;5071165;28;20091;-83
2021/03/05 10:28:28;;;;;;;3.42;1.98;;;;;;;17.88;18.70;92996.78;5070804;28;20040;-84
2021/03/05 10:30:54;;;;;;;;;;;;;;;17.83;17.66;92987.13;5054358;28;20045;-83
2021/03/05 10:33:37;;;;;;;3.72;2.05;;;;;;;17.80;18.89;92987.69;5051064;28;19921;-83
2021/03/05 10:36:04;;;;;;;2.75;1.45;;;;;;;17.81;17.99;92986.63;5051025;28;20052;-83
2021/03/05 10:38:31;;;;;;;3.00;1.48;;;;;;;17.88;17.96;92987.13;5050629;28;20060;-83
2021/03/05 10:40:57;;;;;;;2.45;1.30;;;;;;;17.82;18.20;92975.19;5039688;28;20053;-83
2021/03/05 10:43:24;;;;;;;2.17;1.00;;;;;;;18.01;18.51;92982.47;5033255;28;20049;-83
2021/03/05 10:45:51;;;;;;;5.25;1.58;;;;;;;17.96;18.76;92985.06;5035205;28;20064;-83
2021/03/05 10:48:17;;;;;;;;;;;;;;;18.17;16.68;92975.47;5033811;28;20053;-82
2021/03/05 10:50:43;;;;;;;5.57;2.28;;;;;;;18.34;19.03;92966.59;5030738;28;19925;-82
2021/03/05 10:53:09;;;;;;;;;;;;;;;18.03;19.58;92965.59;5031253;28;20488;-82
2021/03/05 10:55:36;;;;;;;2.45;1.55;;;;;;;17.83;19.34;92966.34;5030490;28;19928;-82
2021/03/05 10:58:02;;;;;;;5.93;2.47;;;;;;;17.95;18.75;92966.09;5030640;28;20046;-82
2021/03/05 11:00:29;;;;;;;4.10;1.88;;;;;;;17.99;18.24;92954.16;5030473;28;20488;-82
2021/03/05 11:02:56;;;;;;;3.88;1.85;;;;;;;17.98;18.62;92962.19;5037459;28;20056;-83
2021/03/05 11:05:23;;;;;;;3.63;1.55;;;;;;;18.03;18.35;92947.41;5050166;28;20052;-83
2021/03/05 11:07:49;;;;;;;2.85;1.50;;;;;;;18.23;17.34;92945.81;5050678;28;20071;-82
2021/03/05 11:10:16;;;;;;;2.45;1.10;;;;;;;18.23;16.44;92939.84;5050343;28;20052;-82
2021/03/05 11:12:42;;;;;;;2.85;1.48;;;;;;;18.40;18.68;92931.72;5049742;28;20416;-82
2021/03/05 11:15:08;;;;;;;;;;;;;;;18.52;18.39;92926.25;5050806;28;20049;-83
2021/03/05 11:17:36;;;;;;;2.53;1.08;;;;;;;18.28;18.84;92917.19;5050223;28;19921;-82
2021/03/05 11:20:02;;;;;;;6.55;2.00;;;;;;;18.25;17.39;92922.16;5050140;28;20050;-82
2021/03/05 11:22:28;;;;;;;2.80;1.75;;;;;;;18.34;17.44;92914.59;5050065;28;20049;-82
2021/03/05 11:24:54;;;;;;;;;;;;;;;18.55;18.44;92908.28;5050515;28;20045;-82
2021/03/05 11:27:20;;;;;;;3.22;1.25;;;;;;;18.23;18.84;92904.22;5049952;28;20398;-82
2021/03/05 11:29:46;;;;;;;;;;;;;;;18.26;18.51;92902.91;5042842;28;20120;-83
2021/03/05 11:32:12;;;;;;;1.92;0.88;;;;;;;18.24;17.54;92894.59;5029806;28;20346;-83
2021/03/05 11:34:39;;;;;;;;;;;;;;;18.30;17.58;92894.31;5030279;28;20050;-82
2021/03/05 11:37:06;;;;;;;4.32;1.70;;;;;;;18.26;18.33;92893.31;5030100;28;20376;-82
2021/03/05 11:39:32;;;;;;;;;;;;;;;18.36;18.54;92897.69;5030208;28;20049;-82
2021/03/05 11:41:58;;;;;;;3.42;1.55;;;;;;;17.90;18.12;92878.53;5031247;28;19921;-82
2021/03/05 11:44:26;;;;;;;2.30;1.08;;;;;;;18.05;18.76;92889.94;5035455;28;20518;-81
2021/03/05 11:46:52;;;;;;;3.53;1.70;;;;;;;18.05;18.97;92891.78;5063815;28;20052;-83
2021/03/05 11:49:18;;;;;;;;;;;;;;;18.27;19.01;92875.88;5053481;28;20045;-82
2021/03/05 11:51:45;;;;;;;5.57;1.40;;;;;;;18.35;18.60;92875.34;5044055;28;20398;-83
2021/03/05 11:54:11;;;;;;;6.72;2.10;;;;;;;18.36;18.56;92873.50;5060478;28;20053;-83
2021/03/05 11:56:37;;;;;;;;;;;;;;;18.53;18.27;92873.16;5069975;28;20049;-82
2021/03/05 11:59:05;;;;;;;3.90;1.95;;;;;;;18.67;17.74;92865.56;5069508;28;19927;-83
2021/03/05 12:01:32;;;;;;;5.63;1.90;;;;;;;18.73;16.99;92867.09;5069435;28;20051;-82
2021/03/05 12:03:58;;;;;;;2.30;1.40;;;;;;;18.73;16.79;92859.28;5068814;28;20060;-82
2021/03/05 12:06:26;;;;;;;;;;;;;;;18.87;16.85;92863.88;5062099;28;20056;-82
2021/03/05 12:08:53;;;;;;;3.90;1.55;;;;;;;18.58;16.63;92848.94;5048511;28;20482;-82